sensor_id;sensor_type;location;lat;lon;timestamp;temperature;humidity
21338;DHT22;72379;50.880;4.350;2023-09-30T00:14:20;15.70;99.90
21338;DHT22;72379;50.880;4.350;2023-09-30T00:21:39;15.40;99.90
21338;DHT22;72379;50.880;4.350;2023-09-30T00:24:05;15.40;99.90
21338;DHT22;72379;50.880;4.350;2023-09-30T00:26:31;15.70;99.90
21338;DHT22;72379;50.880;4.350;2023-09-30T00:28:56;15.80;99.90
21338;DHT22;72379;50.880;4.350;2023-09-30T00:41:07;15.60;99.90
21338;DHT22;72379;50.880;4.350;2023-09-30T00:43:33;15.40;99.90
21338;DHT22;72379;50.880;4.350;2023-09-30T00:48:38;15.30;99.90
21338;DHT22;72379;50.880;4.350;2023-09-30T00:53:31;15.30;99.90
21338;DHT22;72379;50.880;4.350;2023-09-30T00:55:57;15.70;99.90
21338;DHT22;72379;50.880;4.350;2023-09-30T00:58:25;15.50;99.90
21338;DHT22;72379;50.880;4.350;2023-09-30T01:00:56;15.20;99.90
21338;DHT22;72379;50.880;4.350;2023-09-30T01:05:49;15.40;99.90
21338;DHT22;72379;50.880;4.350;2023-09-30T01:08:16;15.40;99.90
21338;DHT22;72379;50.880;4.350;2023-09-30T01:13:09;15.30;99.90
21338;DHT22;72379;50.880;4.350;2023-09-30T01:15:35;15.40;99.90
21338;DHT22;72379;50.880;4.350;2023-09-30T01:18:03;15.30;99.90
21338;DHT22;72379;50.880;4.350;2023-09-30T01:20:28;15.50;99.90
21338;DHT22;72379;50.880;4.350;2023-09-30T01:22:57;15.60;99.90
21338;DHT22;72379;50.880;4.350;2023-09-30T01:25:24;15.40;99.90
21338;DHT22;72379;50.880;4.350;2023-09-30T01:27:50;15.70;99.90
21338;DHT22;72379;50.880;4.350;2023-09-30T01:30:19;15.70;99.90
21338;DHT22;72379;50.880;4.350;2023-09-30T01:32:47;15.70;99.90
21338;DHT22;72379;50.880;4.350;2023-09-30T01:35:13;15.70;99.90
21338;DHT22;72379;50.880;4.350;2023-09-30T01:40:06;15.00;99.90
21338;DHT22;72379;50.880;4.350;2023-09-30T01:47:29;15.20;99.90
21338;DHT22;72379;50.880;4.350;2023-09-30T01:54:48;15.10;99.90
21338;DHT22;72379;50.880;4.350;2023-09-30T01:57:13;15.20;99.90
21338;DHT22;72379;50.880;4.350;2023-09-30T02:26:28;14.80;99.90
21338;DHT22;72379;50.880;4.350;2023-09-30T02:28:54;15.20;99.90
21338;DHT22;72379;50.880;4.350;2023-09-30T02:31:20;15.20;99.90
21338;DHT22;72379;50.880;4.350;2023-09-30T02:36:12;15.50;99.90
21338;DHT22;72379;50.880;4.350;2023-09-30T02:46:01;14.90;99.90
21338;DHT22;72379;50.880;4.350;2023-09-30T02:48:26;15.10;99.90
21338;DHT22;72379;50.880;4.350;2023-09-30T02:50:52;14.80;99.90
21338;DHT22;72379;50.880;4.350;2023-09-30T02:58:11;15.20;99.90
21338;DHT22;72379;50.880;4.350;2023-09-30T03:03:04;15.20;99.90
21338;DHT22;72379;50.880;4.350;2023-09-30T03:05:30;15.30;99.90
21338;DHT22;72379;50.880;4.350;2023-09-30T03:10:25;15.40;99.90
21338;DHT22;72379;50.880;4.350;2023-09-30T03:12:53;15.50;99.40
21338;DHT22;72379;50.880;4.350;2023-09-30T03:20:11;15.40;99.90
21338;DHT22;72379;50.880;4.350;2023-09-30T03:22:41;15.10;99.90
21338;DHT22;72379;50.880;4.350;2023-09-30T03:25:08;15.10;99.90
21338;DHT22;72379;50.880;4.350;2023-09-30T03:27:35;14.70;99.90
21338;DHT22;72379;50.880;4.350;2023-09-30T03:30:02;15.10;99.90
21338;DHT22;72379;50.880;4.350;2023-09-30T03:37:26;15.10;99.90
21338;DHT22;72379;50.880;4.350;2023-09-30T03:39:55;15.10;99.90
21338;DHT22;72379;50.880;4.350;2023-09-30T03:42:21;15.10;99.90
21338;DHT22;72379;50.880;4.350;2023-09-30T03:44:47;15.10;99.90
21338;DHT22;72379;50.880;4.350;2023-09-30T03:47:14;15.30;99.90
21338;DHT22;72379;50.880;4.350;2023-09-30T03:54:34;14.90;99.90
21338;DHT22;72379;50.880;4.350;2023-09-30T03:59:26;14.90;99.90
21338;DHT22;72379;50.880;4.350;2023-09-30T04:01:53;15.00;99.90
21338;DHT22;72379;50.880;4.350;2023-09-30T04:04:20;15.10;99.90
21338;DHT22;72379;50.880;4.350;2023-09-30T04:06:46;15.20;99.90
21338;DHT22;72379;50.880;4.350;2023-09-30T04:09:13;15.20;99.90
21338;DHT22;72379;50.880;4.350;2023-09-30T04:11:39;15.00;99.90
21338;DHT22;72379;50.880;4.350;2023-09-30T04:14:07;15.20;99.90
21338;DHT22;72379;50.880;4.350;2023-09-30T04:16:34;15.30;99.90
21338;DHT22;72379;50.880;4.350;2023-09-30T04:19:00;14.50;99.90
21338;DHT22;72379;50.880;4.350;2023-09-30T04:21:26;14.70;99.90
21338;DHT22;72379;50.880;4.350;2023-09-30T04:23:54;14.80;99.90
21338;DHT22;72379;50.880;4.350;2023-09-30T04:31:11;14.80;99.90
21338;DHT22;72379;50.880;4.350;2023-09-30T04:33:38;14.80;99.90
21338;DHT22;72379;50.880;4.350;2023-09-30T04:36:06;14.80;99.90
21338;DHT22;72379;50.880;4.350;2023-09-30T04:38:34;14.70;99.90
21338;DHT22;72379;50.880;4.350;2023-09-30T04:41:03;14.60;99.90
21338;DHT22;72379;50.880;4.350;2023-09-30T04:43:33;14.50;99.90
21338;DHT22;72379;50.880;4.350;2023-09-30T04:45:59;14.40;99.90
21338;DHT22;72379;50.880;4.350;2023-09-30T04:50:51;14.30;99.90
21338;DHT22;72379;50.880;4.350;2023-09-30T04:53:17;14.40;99.90
21338;DHT22;72379;50.880;4.350;2023-09-30T04:55:44;14.50;99.90
21338;DHT22;72379;50.880;4.350;2023-09-30T04:58:10;14.70;99.90
21338;DHT22;72379;50.880;4.350;2023-09-30T05:00:36;14.50;99.90
21338;DHT22;72379;50.880;4.350;2023-09-30T05:03:02;14.60;99.90
21338;DHT22;72379;50.880;4.350;2023-09-30T05:05:28;14.60;99.90
21338;DHT22;72379;50.880;4.350;2023-09-30T05:07:56;14.70;99.90
21338;DHT22;72379;50.880;4.350;2023-09-30T05:12:49;14.60;99.90
21338;DHT22;72379;50.880;4.350;2023-09-30T05:15:17;14.50;99.90
21338;DHT22;72379;50.880;4.350;2023-09-30T05:17:45;14.30;99.90
21338;DHT22;72379;50.880;4.350;2023-09-30T05:20:13;14.40;99.90
21338;DHT22;72379;50.880;4.350;2023-09-30T05:25:12;14.40;99.90
21338;DHT22;72379;50.880;4.350;2023-09-30T05:27:39;14.40;99.90
21338;DHT22;72379;50.880;4.350;2023-09-30T05:30:06;14.60;99.90
21338;DHT22;72379;50.880;4.350;2023-09-30T05:32:33;14.20;99.90
21338;DHT22;72379;50.880;4.350;2023-09-30T05:42:21;14.30;99.90
21338;DHT22;72379;50.880;4.350;2023-09-30T05:44:47;14.10;99.90
21338;DHT22;72379;50.880;4.350;2023-09-30T05:47:14;14.00;99.90
21338;DHT22;72379;50.880;4.350;2023-09-30T05:49:41;14.00;99.90
21338;DHT22;72379;50.880;4.350;2023-09-30T05:52:07;14.10;99.90
21338;DHT22;72379;50.880;4.350;2023-09-30T05:54:32;14.20;99.90
21338;DHT22;72379;50.880;4.350;2023-09-30T06:04:19;14.30;99.90
21338;DHT22;72379;50.880;4.350;2023-09-30T06:14:07;14.50;99.90
21338;DHT22;72379;50.880;4.350;2023-09-30T06:16:33;14.60;99.90
21338;DHT22;72379;50.880;4.350;2023-09-30T06:19:00;14.50;99.90
21338;DHT22;72379;50.880;4.350;2023-09-30T06:23:55;14.50;99.90
21338;DHT22;72379;50.880;4.350;2023-09-30T06:28:47;15.00;99.90
21338;DHT22;72379;50.880;4.350;2023-09-30T06:36:10;15.20;99.90
21338;DHT22;72379;50.880;4.350;2023-09-30T06:38:37;15.10;99.90
21338;DHT22;72379;50.880;4.350;2023-09-30T06:45:55;14.80;99.90
21338;DHT22;72379;50.880;4.350;2023-09-30T06:50:48;14.80;99.90
21338;DHT22;72379;50.880;4.350;2023-09-30T06:53:15;15.00;99.90
21338;DHT22;72379;50.880;4.350;2023-09-30T06:55:42;14.90;99.90
21338;DHT22;72379;50.880;4.350;2023-09-30T06:58:09;15.00;99.90
21338;DHT22;72379;50.880;4.350;2023-09-30T07:00:37;15.20;99.90
21338;DHT22;72379;50.880;4.350;2023-09-30T07:03:03;15.60;99.90
21338;DHT22;72379;50.880;4.350;2023-09-30T07:05:29;15.50;99.90
21338;DHT22;72379;50.880;4.350;2023-09-30T07:07:55;15.50;99.90
21338;DHT22;72379;50.880;4.350;2023-09-30T07:12:47;15.70;96.30
21338;DHT22;72379;50.880;4.350;2023-09-30T07:15:14;15.60;99.90
21338;DHT22;72379;50.880;4.350;2023-09-30T07:17:40;15.70;90.30
21338;DHT22;72379;50.880;4.350;2023-09-30T07:22:33;15.20;99.90
21338;DHT22;72379;50.880;4.350;2023-09-30T07:34:44;16.10;62.90
21338;DHT22;72379;50.880;4.350;2023-09-30T07:44:28;16.90;52.20
21338;DHT22;72379;50.880;4.350;2023-09-30T07:46:54;17.30;26.20
21338;DHT22;72379;50.880;4.350;2023-09-30T07:54:12;17.30;18.50
21338;DHT22;72379;50.880;4.350;2023-09-30T07:59:04;16.80;33.40
21338;DHT22;72379;50.880;4.350;2023-09-30T08:01:31;16.90;53.40
21338;DHT22;72379;50.880;4.350;2023-09-30T08:03:56;17.10;53.40
21338;DHT22;72379;50.880;4.350;2023-09-30T08:06:22;16.90;48.70
21338;DHT22;72379;50.880;4.350;2023-09-30T08:11:15;16.90;51.90
21338;DHT22;72379;50.880;4.350;2023-09-30T08:13:41;17.10;40.50
21338;DHT22;72379;50.880;4.350;2023-09-30T08:16:06;17.30;29.10
21338;DHT22;72379;50.880;4.350;2023-09-30T08:18:32;17.30;42.70
21338;DHT22;72379;50.880;4.350;2023-09-30T08:30:42;19.30;1.00
21338;DHT22;72379;50.880;4.350;2023-09-30T08:33:08;19.70;1.00
21338;DHT22;72379;50.880;4.350;2023-09-30T08:35:37;19.90;1.00
21338;DHT22;72379;50.880;4.350;2023-09-30T08:38:05;19.70;1.00
21338;DHT22;72379;50.880;4.350;2023-09-30T08:47:50;19.40;1.00
21338;DHT22;72379;50.880;4.350;2023-09-30T08:50:16;19.00;1.00
21338;DHT22;72379;50.880;4.350;2023-09-30T08:52:44;18.60;1.00
21338;DHT22;72379;50.880;4.350;2023-09-30T08:55:10;18.80;1.00
21338;DHT22;72379;50.880;4.350;2023-09-30T08:57:46;18.60;1.00
21338;DHT22;72379;50.880;4.350;2023-09-30T09:00:13;18.60;1.00
21338;DHT22;72379;50.880;4.350;2023-09-30T09:02:40;18.20;1.00
21338;DHT22;72379;50.880;4.350;2023-09-30T09:05:06;18.00;5.20
21338;DHT22;72379;50.880;4.350;2023-09-30T09:07:33;18.10;9.80
21338;DHT22;72379;50.880;4.350;2023-09-30T09:10:04;18.30;3.40
21338;DHT22;72379;50.880;4.350;2023-09-30T09:12:32;18.30;1.00
21338;DHT22;72379;50.880;4.350;2023-09-30T09:17:43;18.90;1.00
21338;DHT22;72379;50.880;4.350;2023-09-30T09:20:10;18.80;1.00
21338;DHT22;72379;50.880;4.350;2023-09-30T09:22:40;18.60;1.00
21338;DHT22;72379;50.880;4.350;2023-09-30T09:25:06;18.60;1.00
21338;DHT22;72379;50.880;4.350;2023-09-30T09:27:37;18.50;1.00
21338;DHT22;72379;50.880;4.350;2023-09-30T09:33:01;18.60;1.00
21338;DHT22;72379;50.880;4.350;2023-09-30T09:35:27;18.00;1.00
21338;DHT22;72379;50.880;4.350;2023-09-30T09:40:26;18.20;1.00
21338;DHT22;72379;50.880;4.350;2023-09-30T09:42:52;18.20;1.00
21338;DHT22;72379;50.880;4.350;2023-09-30T09:45:25;18.30;1.00
21338;DHT22;72379;50.880;4.350;2023-09-30T09:47:52;18.60;1.00
21338;DHT22;72379;50.880;4.350;2023-09-30T09:50:19;18.40;1.00
21338;DHT22;72379;50.880;4.350;2023-09-30T09:52:54;18.60;1.00
21338;DHT22;72379;50.880;4.350;2023-09-30T09:57:51;18.60;1.00
21338;DHT22;72379;50.880;4.350;2023-09-30T10:00:24;18.50;1.00
21338;DHT22;72379;50.880;4.350;2023-09-30T10:05:18;18.90;1.00
21338;DHT22;72379;50.880;4.350;2023-09-30T10:10:14;19.10;1.00
21338;DHT22;72379;50.880;4.350;2023-09-30T10:12:42;18.70;1.00
21338;DHT22;72379;50.880;4.350;2023-09-30T10:20:37;19.30;1.00
21338;DHT22;72379;50.880;4.350;2023-09-30T10:23:19;19.70;1.00
21338;DHT22;72379;50.880;4.350;2023-09-30T10:25:49;19.80;1.00
21338;DHT22;72379;50.880;4.350;2023-09-30T10:28:39;19.80;1.00
21338;DHT22;72379;50.880;4.350;2023-09-30T10:31:10;19.80;1.00
21338;DHT22;72379;50.880;4.350;2023-09-30T10:36:29;19.40;1.00
21338;DHT22;72379;50.880;4.350;2023-09-30T10:38:55;18.80;1.00
21338;DHT22;72379;50.880;4.350;2023-09-30T10:46:55;19.10;1.00
21338;DHT22;72379;50.880;4.350;2023-09-30T10:51:57;19.90;1.00
21338;DHT22;72379;50.880;4.350;2023-09-30T10:54:27;20.10;1.00
21338;DHT22;72379;50.880;4.350;2023-09-30T10:59:24;19.80;1.00
21338;DHT22;72379;50.880;4.350;2023-09-30T11:01:50;19.90;1.00
21338;DHT22;72379;50.880;4.350;2023-09-30T11:04:17;19.60;1.00
21338;DHT22;72379;50.880;4.350;2023-09-30T11:09:19;19.50;1.00
21338;DHT22;72379;50.880;4.350;2023-09-30T11:11:46;19.80;1.00
21338;DHT22;72379;50.880;4.350;2023-09-30T11:16:50;19.90;1.00
21338;DHT22;72379;50.880;4.350;2023-09-30T11:19:16;19.50;1.00
21338;DHT22;72379;50.880;4.350;2023-09-30T11:21:42;19.50;1.00
21338;DHT22;72379;50.880;4.350;2023-09-30T11:24:13;19.30;1.00
21338;DHT22;72379;50.880;4.350;2023-09-30T11:26:39;19.60;1.00
21338;DHT22;72379;50.880;4.350;2023-09-30T11:29:08;20.10;1.00
21338;DHT22;72379;50.880;4.350;2023-09-30T11:31:45;20.30;1.00
21338;DHT22;72379;50.880;4.350;2023-09-30T11:34:11;20.50;1.00
21338;DHT22;72379;50.880;4.350;2023-09-30T11:36:57;20.60;1.00
21338;DHT22;72379;50.880;4.350;2023-09-30T11:39:24;20.60;1.00
21338;DHT22;72379;50.880;4.350;2023-09-30T11:41:50;20.60;1.00
21338;DHT22;72379;50.880;4.350;2023-09-30T11:46:49;20.70;1.00
21338;DHT22;72379;50.880;4.350;2023-09-30T11:49:39;20.90;1.00
21338;DHT22;72379;50.880;4.350;2023-09-30T11:52:08;20.80;99.90
21338;DHT22;72379;50.880;4.350;2023-09-30T11:57:10;20.50;99.90
21338;DHT22;72379;50.880;4.350;2023-09-30T11:59:37;20.70;99.90
21338;DHT22;72379;50.880;4.350;2023-09-30T12:02:03;21.10;1.00
21338;DHT22;72379;50.880;4.350;2023-09-30T12:04:31;21.40;1.00
21338;DHT22;72379;50.880;4.350;2023-09-30T12:06:57;21.30;1.00
21338;DHT22;72379;50.880;4.350;2023-09-30T12:09:23;21.10;1.00
21338;DHT22;72379;50.880;4.350;2023-09-30T12:11:52;21.50;99.90
21338;DHT22;72379;50.880;4.350;2023-09-30T12:14:22;21.50;1.00
21338;DHT22;72379;50.880;4.350;2023-09-30T12:16:48;21.90;1.00
21338;DHT22;72379;50.880;4.350;2023-09-30T12:19:14;21.80;1.00
21338;DHT22;72379;50.880;4.350;2023-09-30T12:21:42;22.00;1.00
21338;DHT22;72379;50.880;4.350;2023-09-30T12:24:10;22.30;1.00
21338;DHT22;72379;50.880;4.350;2023-09-30T12:26:36;22.00;99.90
21338;DHT22;72379;50.880;4.350;2023-09-30T12:29:04;22.30;99.90
21338;DHT22;72379;50.880;4.350;2023-09-30T12:36:25;22.70;99.90
21338;DHT22;72379;50.880;4.350;2023-09-30T12:38:51;22.80;1.00
21338;DHT22;72379;50.880;4.350;2023-09-30T12:41:16;23.20;99.90
21338;DHT22;72379;50.880;4.350;2023-09-30T12:43:44;23.50;38.40
21338;DHT22;72379;50.880;4.350;2023-09-30T12:48:39;24.50;1.00
21338;DHT22;72379;50.880;4.350;2023-09-30T12:51:05;24.10;1.00
21338;DHT22;72379;50.880;4.350;2023-09-30T12:53:33;24.50;99.90
21338;DHT22;72379;50.880;4.350;2023-09-30T12:55:59;24.80;1.00
21338;DHT22;72379;50.880;4.350;2023-09-30T13:05:45;26.00;1.00
21338;DHT22;72379;50.880;4.350;2023-09-30T13:08:11;26.30;99.90
21338;DHT22;72379;50.880;4.350;2023-09-30T13:10:37;25.60;99.90
21338;DHT22;72379;50.880;4.350;2023-09-30T13:13:04;24.90;99.90
21338;DHT22;72379;50.880;4.350;2023-09-30T13:22:47;26.70;99.90
21338;DHT22;72379;50.880;4.350;2023-09-30T13:25:15;27.30;1.00
21338;DHT22;72379;50.880;4.350;2023-09-30T13:27:41;26.60;1.00
21338;DHT22;72379;50.880;4.350;2023-09-30T13:30:07;26.90;99.90
21338;DHT22;72379;50.880;4.350;2023-09-30T13:32:35;26.90;99.90
21338;DHT22;72379;50.880;4.350;2023-09-30T13:35:07;26.90;1.00
21338;DHT22;72379;50.880;4.350;2023-09-30T13:37:33;26.40;94.30
21338;DHT22;72379;50.880;4.350;2023-09-30T13:40:00;26.60;1.00
21338;DHT22;72379;50.880;4.350;2023-09-30T13:42:26;27.10;98.80
21338;DHT22;72379;50.880;4.350;2023-09-30T13:44:52;28.80;8.50
21338;DHT22;72379;50.880;4.350;2023-09-30T13:47:18;29.60;1.00
21338;DHT22;72379;50.880;4.350;2023-09-30T13:49:44;28.60;1.00
21338;DHT22;72379;50.880;4.350;2023-09-30T13:52:09;28.40;1.00
21338;DHT22;72379;50.880;4.350;2023-09-30T13:54:35;27.90;1.00
21338;DHT22;72379;50.880;4.350;2023-09-30T14:01:53;27.40;1.00
21338;DHT22;72379;50.880;4.350;2023-09-30T14:06:45;27.80;1.00
21338;DHT22;72379;50.880;4.350;2023-09-30T14:09:13;28.80;1.00
21338;DHT22;72379;50.880;4.350;2023-09-30T14:11:41;29.00;1.00
21338;DHT22;72379;50.880;4.350;2023-09-30T14:14:07;27.70;1.00
21338;DHT22;72379;50.880;4.350;2023-09-30T14:16:36;27.80;1.00
21338;DHT22;72379;50.880;4.350;2023-09-30T14:19:02;28.50;1.00
21338;DHT22;72379;50.880;4.350;2023-09-30T14:21:29;28.20;1.00
21338;DHT22;72379;50.880;4.350;2023-09-30T14:23:54;28.10;1.00
21338;DHT22;72379;50.880;4.350;2023-09-30T14:26:20;27.70;1.00
21338;DHT22;72379;50.880;4.350;2023-09-30T14:28:45;27.20;1.00
21338;DHT22;72379;50.880;4.350;2023-09-30T14:31:12;27.10;1.00
21338;DHT22;72379;50.880;4.350;2023-09-30T14:33:39;27.20;1.00
21338;DHT22;72379;50.880;4.350;2023-09-30T14:36:05;27.60;1.00
21338;DHT22;72379;50.880;4.350;2023-09-30T14:38:34;26.90;1.00
21338;DHT22;72379;50.880;4.350;2023-09-30T14:43:25;25.50;1.00
21338;DHT22;72379;50.880;4.350;2023-09-30T14:48:17;26.00;1.00
21338;DHT22;72379;50.880;4.350;2023-09-30T14:50:50;26.50;1.00
21338;DHT22;72379;50.880;4.350;2023-09-30T14:53:16;25.90;1.00
21338;DHT22;72379;50.880;4.350;2023-09-30T14:55:42;24.80;1.00
21338;DHT22;72379;50.880;4.350;2023-09-30T14:58:08;24.20;18.20
21338;DHT22;72379;50.880;4.350;2023-09-30T15:05:27;23.70;77.00
21338;DHT22;72379;50.880;4.350;2023-09-30T15:07:53;23.70;99.90
21338;DHT22;72379;50.880;4.350;2023-09-30T15:20:05;22.70;99.90
21338;DHT22;72379;50.880;4.350;2023-09-30T15:22:32;22.70;1.00
21338;DHT22;72379;50.880;4.350;2023-09-30T15:24:58;22.80;30.00
21338;DHT22;72379;50.880;4.350;2023-09-30T15:29:50;22.80;1.00
21338;DHT22;72379;50.880;4.350;2023-09-30T15:32:18;22.80;9.70
21338;DHT22;72379;50.880;4.350;2023-09-30T15:37:10;22.40;1.00
21338;DHT22;72379;50.880;4.350;2023-09-30T15:39:40;22.40;1.00
21338;DHT22;72379;50.880;4.350;2023-09-30T15:42:07;22.50;1.00
21338;DHT22;72379;50.880;4.350;2023-09-30T15:44:37;22.50;99.90
21338;DHT22;72379;50.880;4.350;2023-09-30T15:47:05;22.30;1.00
21338;DHT22;72379;50.880;4.350;2023-09-30T15:51:58;21.60;1.00
21338;DHT22;72379;50.880;4.350;2023-09-30T16:01:42;22.00;99.90
21338;DHT22;72379;50.880;4.350;2023-09-30T16:11:26;21.70;1.00
21338;DHT22;72379;50.880;4.350;2023-09-30T16:13:53;21.30;1.00
21338;DHT22;72379;50.880;4.350;2023-09-30T16:18:44;21.10;99.90
21338;DHT22;72379;50.880;4.350;2023-09-30T16:21:10;20.70;1.00
21338;DHT22;72379;50.880;4.350;2023-09-30T16:23:36;21.10;99.90
21338;DHT22;72379;50.880;4.350;2023-09-30T16:26:02;21.60;99.90
21338;DHT22;72379;50.880;4.350;2023-09-30T16:30:55;21.70;1.00
21338;DHT22;72379;50.880;4.350;2023-09-30T16:35:52;21.60;99.90
21338;DHT22;72379;50.880;4.350;2023-09-30T16:38:18;21.30;1.00
21338;DHT22;72379;50.880;4.350;2023-09-30T16:40:48;21.00;1.00
21338;DHT22;72379;50.880;4.350;2023-09-30T16:43:14;20.90;1.00
21338;DHT22;72379;50.880;4.350;2023-09-30T16:45:41;20.80;1.00
21338;DHT22;72379;50.880;4.350;2023-09-30T16:50:35;21.30;99.90
21338;DHT22;72379;50.880;4.350;2023-09-30T16:57:54;20.50;99.90
21338;DHT22;72379;50.880;4.350;2023-09-30T17:00:20;20.20;99.90
21338;DHT22;72379;50.880;4.350;2023-09-30T17:02:47;20.00;1.00
21338;DHT22;72379;50.880;4.350;2023-09-30T17:05:13;19.80;1.00
21338;DHT22;72379;50.880;4.350;2023-09-30T17:07:40;20.00;1.00
21338;DHT22;72379;50.880;4.350;2023-09-30T17:12:34;20.60;1.00
21338;DHT22;72379;50.880;4.350;2023-09-30T17:14:59;20.70;99.90
21338;DHT22;72379;50.880;4.350;2023-09-30T17:17:25;20.40;99.90
21338;DHT22;72379;50.880;4.350;2023-09-30T17:22:20;20.30;1.00
21338;DHT22;72379;50.880;4.350;2023-09-30T17:24:46;20.10;40.50
21338;DHT22;72379;50.880;4.350;2023-09-30T17:29:38;20.20;99.90
21338;DHT22;72379;50.880;4.350;2023-09-30T17:32:05;20.20;99.90
21338;DHT22;72379;50.880;4.350;2023-09-30T17:34:35;20.30;99.90
21338;DHT22;72379;50.880;4.350;2023-09-30T17:37:05;20.20;99.90
21338;DHT22;72379;50.880;4.350;2023-09-30T17:41:58;20.70;99.90
21338;DHT22;72379;50.880;4.350;2023-09-30T17:44:24;20.40;99.90
21338;DHT22;72379;50.880;4.350;2023-09-30T17:46:49;20.10;1.00
21338;DHT22;72379;50.880;4.350;2023-09-30T17:49:15;19.90;1.00
21338;DHT22;72379;50.880;4.350;2023-09-30T17:51:41;19.90;1.00
21338;DHT22;72379;50.880;4.350;2023-09-30T17:54:13;20.00;1.00
21338;DHT22;72379;50.880;4.350;2023-09-30T17:59:06;20.10;1.00
21338;DHT22;72379;50.880;4.350;2023-09-30T18:06:24;19.20;1.00
21338;DHT22;72379;50.880;4.350;2023-09-30T18:08:50;19.40;1.00
21338;DHT22;72379;50.880;4.350;2023-09-30T18:11:16;18.80;1.00
21338;DHT22;72379;50.880;4.350;2023-09-30T18:13:43;19.10;1.00
21338;DHT22;72379;50.880;4.350;2023-09-30T18:16:09;18.90;1.00
21338;DHT22;72379;50.880;4.350;2023-09-30T18:18:36;19.00;1.00
21338;DHT22;72379;50.880;4.350;2023-09-30T18:21:02;19.10;1.00
21338;DHT22;72379;50.880;4.350;2023-09-30T18:23:29;19.00;1.00
21338;DHT22;72379;50.880;4.350;2023-09-30T18:25:55;18.90;1.00
21338;DHT22;72379;50.880;4.350;2023-09-30T18:28:20;18.70;1.00
21338;DHT22;72379;50.880;4.350;2023-09-30T18:30:47;18.80;1.00
21338;DHT22;72379;50.880;4.350;2023-09-30T18:33:13;18.90;1.00
21338;DHT22;72379;50.880;4.350;2023-09-30T18:35:43;18.90;1.00
21338;DHT22;72379;50.880;4.350;2023-09-30T18:38:10;17.70;1.00
21338;DHT22;72379;50.880;4.350;2023-09-30T18:43:07;18.40;1.00
21338;DHT22;72379;50.880;4.350;2023-09-30T18:45:46;18.10;1.00
21338;DHT22;72379;50.880;4.350;2023-09-30T18:48:12;18.30;1.00
21338;DHT22;72379;50.880;4.350;2023-09-30T18:50:43;18.70;1.00
21338;DHT22;72379;50.880;4.350;2023-09-30T18:53:09;18.60;1.00
21338;DHT22;72379;50.880;4.350;2023-09-30T18:55:39;18.40;1.00
21338;DHT22;72379;50.880;4.350;2023-09-30T18:58:05;18.50;1.00
21338;DHT22;72379;50.880;4.350;2023-09-30T19:00:32;18.60;1.00
21338;DHT22;72379;50.880;4.350;2023-09-30T19:03:02;18.50;1.00
21338;DHT22;72379;50.880;4.350;2023-09-30T19:05:28;18.30;1.00
21338;DHT22;72379;50.880;4.350;2023-09-30T19:07:55;17.90;1.00
21338;DHT22;72379;50.880;4.350;2023-09-30T19:10:22;18.10;1.00
21338;DHT22;72379;50.880;4.350;2023-09-30T19:12:49;18.30;1.00
21338;DHT22;72379;50.880;4.350;2023-09-30T19:15:15;18.50;1.00
21338;DHT22;72379;50.880;4.350;2023-09-30T19:17:41;18.50;1.00
21338;DHT22;72379;50.880;4.350;2023-09-30T19:22:34;18.40;1.00
21338;DHT22;72379;50.880;4.350;2023-09-30T19:25:00;18.30;1.00
21338;DHT22;72379;50.880;4.350;2023-09-30T19:29:52;18.00;1.00
21338;DHT22;72379;50.880;4.350;2023-09-30T19:32:18;18.00;1.00
21338;DHT22;72379;50.880;4.350;2023-09-30T19:39:36;17.80;1.00
21338;DHT22;72379;50.880;4.350;2023-09-30T19:42:01;17.80;1.00
21338;DHT22;72379;50.880;4.350;2023-09-30T19:44:27;17.70;1.00
21338;DHT22;72379;50.880;4.350;2023-09-30T19:46:53;17.80;1.00
21338;DHT22;72379;50.880;4.350;2023-09-30T19:49:18;18.20;1.00
21338;DHT22;72379;50.880;4.350;2023-09-30T19:51:44;17.80;1.00
21338;DHT22;72379;50.880;4.350;2023-09-30T19:59:04;17.60;1.00
21338;DHT22;72379;50.880;4.350;2023-09-30T20:01:30;17.80;1.00
21338;DHT22;72379;50.880;4.350;2023-09-30T20:03:56;17.80;1.00
21338;DHT22;72379;50.880;4.350;2023-09-30T20:06:22;17.80;1.00
21338;DHT22;72379;50.880;4.350;2023-09-30T20:08:49;17.50;1.00
21338;DHT22;72379;50.880;4.350;2023-09-30T20:11:20;17.80;1.00
21338;DHT22;72379;50.880;4.350;2023-09-30T20:13:46;17.80;1.00
21338;DHT22;72379;50.880;4.350;2023-09-30T20:16:12;17.70;1.00
21338;DHT22;72379;50.880;4.350;2023-09-30T20:18:39;17.70;1.00
21338;DHT22;72379;50.880;4.350;2023-09-30T20:23:31;17.60;1.00
21338;DHT22;72379;50.880;4.350;2023-09-30T20:25:57;17.60;1.00
21338;DHT22;72379;50.880;4.350;2023-09-30T20:28:23;18.00;1.00
21338;DHT22;72379;50.880;4.350;2023-09-30T20:33:15;18.80;1.00
21338;DHT22;72379;50.880;4.350;2023-09-30T20:35:41;18.70;1.00
21338;DHT22;72379;50.880;4.350;2023-09-30T20:38:10;18.50;1.00
21338;DHT22;72379;50.880;4.350;2023-09-30T20:43:02;18.20;1.00
21338;DHT22;72379;50.880;4.350;2023-09-30T20:52:49;17.40;1.00
21338;DHT22;72379;50.880;4.350;2023-09-30T20:55:17;17.10;1.00
21338;DHT22;72379;50.880;4.350;2023-09-30T20:57:43;17.70;1.00
21338;DHT22;72379;50.880;4.350;2023-09-30T21:00:09;18.00;1.00
21338;DHT22;72379;50.880;4.350;2023-09-30T21:02:35;17.80;1.00
21338;DHT22;72379;50.880;4.350;2023-09-30T21:05:01;18.10;1.00
21338;DHT22;72379;50.880;4.350;2023-09-30T21:09:53;18.10;1.00
21338;DHT22;72379;50.880;4.350;2023-09-30T21:26:56;17.50;1.00
21338;DHT22;72379;50.880;4.350;2023-09-30T21:29:21;17.40;1.00
21338;DHT22;72379;50.880;4.350;2023-09-30T21:34:13;17.50;1.00
21338;DHT22;72379;50.880;4.350;2023-09-30T21:39:06;17.30;1.00
21338;DHT22;72379;50.880;4.350;2023-09-30T21:41:35;16.90;1.00
21338;DHT22;72379;50.880;4.350;2023-09-30T21:44:01;16.80;1.00
21338;DHT22;72379;50.880;4.350;2023-09-30T21:46:26;17.40;1.00
21338;DHT22;72379;50.880;4.350;2023-09-30T21:48:52;16.80;1.00
21338;DHT22;72379;50.880;4.350;2023-09-30T21:53:46;17.20;1.00
21338;DHT22;72379;50.880;4.350;2023-09-30T21:58:37;17.10;1.00
21338;DHT22;72379;50.880;4.350;2023-09-30T22:03:32;17.20;1.00
21338;DHT22;72379;50.880;4.350;2023-09-30T22:05:58;17.20;1.00
21338;DHT22;72379;50.880;4.350;2023-09-30T22:08:25;16.90;1.00
21338;DHT22;72379;50.880;4.350;2023-09-30T22:10:52;16.90;1.00
21338;DHT22;72379;50.880;4.350;2023-09-30T22:13:22;17.00;1.00
21338;DHT22;72379;50.880;4.350;2023-09-30T22:23:06;17.20;1.00
21338;DHT22;72379;50.880;4.350;2023-09-30T22:25:33;17.00;1.00
21338;DHT22;72379;50.880;4.350;2023-09-30T22:28:05;16.70;1.00
21338;DHT22;72379;50.880;4.350;2023-09-30T22:30:32;16.70;1.00
21338;DHT22;72379;50.880;4.350;2023-09-30T22:32:58;16.80;1.00
21338;DHT22;72379;50.880;4.350;2023-09-30T22:35:28;17.00;1.00
21338;DHT22;72379;50.880;4.350;2023-09-30T22:37:53;16.90;1.00
21338;DHT22;72379;50.880;4.350;2023-09-30T22:40:20;17.30;1.00
21338;DHT22;72379;50.880;4.350;2023-09-30T22:42:46;16.90;1.00
21338;DHT22;72379;50.880;4.350;2023-09-30T22:47:46;16.90;1.00
21338;DHT22;72379;50.880;4.350;2023-09-30T22:50:15;17.00;1.00